createdAt,value
2018-07-21T00:00:13.962Z,32.04
2018-07-21T00:02:42.723Z,32.03
2018-07-21T00:05:11.060Z,32.03
2018-07-21T00:07:39.807Z,32.02
2018-07-21T00:10:08.766Z,32.02
2018-07-21T00:12:37.515Z,32.02
2018-07-21T00:15:06.453Z,32.02
2018-07-21T00:17:35.201Z,32.01
2018-07-21T00:20:04.078Z,32.01
2018-07-21T00:22:32.869Z,32.01
2018-07-21T00:25:01.754Z,32.01
2018-07-21T00:27:30.453Z,32.00
2018-07-21T00:29:59.312Z,31.99
2018-07-21T00:32:28.030Z,31.99
2018-07-21T00:34:56.829Z,31.99
2018-07-21T00:37:25.598Z,31.98
2018-07-21T00:39:54.323Z,31.99
2018-07-21T00:42:23.043Z,31.99
2018-07-21T00:44:51.790Z,31.97
2018-07-21T00:47:20.573Z,31.97
2018-07-21T00:49:49.422Z,31.96
2018-07-21T00:52:18.291Z,31.96
2018-07-21T00:54:47.041Z,31.95
2018-07-21T00:57:15.818Z,31.95
2018-07-21T00:59:44.660Z,31.95
2018-07-21T01:02:13.525Z,31.94
2018-07-21T01:04:42.271Z,31.93
2018-07-21T01:07:11.048Z,31.93
2018-07-21T01:09:39.753Z,31.92
2018-07-21T01:12:08.765Z,31.92
2018-07-21T01:14:37.503Z,31.91
2018-07-21T01:17:06.739Z,31.90
2018-07-21T01:19:35.495Z,31.89
2018-07-21T01:22:04.316Z,31.90
2018-07-21T01:24:33.175Z,31.89
2018-07-21T01:27:01.904Z,31.88
2018-07-21T01:29:30.715Z,31.88
2018-07-21T01:31:59.480Z,31.88
2018-07-21T01:34:28.254Z,31.88
2018-07-21T01:36:57.124Z,31.89
2018-07-21T01:39:25.892Z,31.88
2018-07-21T01:41:54.732Z,31.88
2018-07-21T01:44:23.515Z,31.88
2018-07-21T01:46:52.237Z,31.89
2018-07-21T01:49:21.645Z,31.88
2018-07-21T01:51:50.390Z,31.88
2018-07-21T01:54:19.185Z,31.88
2018-07-21T01:56:47.884Z,31.87
2018-07-21T01:59:16.619Z,31.89
2018-07-21T02:01:45.498Z,31.87
2018-07-21T02:04:14.237Z,31.87
2018-07-21T02:06:43.059Z,31.87
2018-07-21T02:09:12.054Z,31.88
2018-07-21T02:11:40.863Z,31.88
2018-07-21T02:14:09.870Z,31.88
2018-07-21T02:16:38.707Z,31.89
2018-07-21T02:19:07.553Z,31.88
2018-07-21T02:21:36.362Z,31.88
2018-07-21T02:24:05.155Z,31.89
2018-07-21T02:26:33.915Z,31.87
2018-07-21T02:29:02.744Z,31.87
2018-07-21T02:31:31.474Z,31.88
2018-07-21T02:34:00.181Z,31.88
2018-07-21T02:36:28.940Z,31.87
2018-07-21T02:38:57.648Z,31.88
2018-07-21T02:41:26.415Z,31.87
2018-07-21T02:43:55.107Z,31.88
2018-07-21T02:46:23.817Z,31.87
2018-07-21T02:48:52.545Z,31.87
2018-07-21T02:51:21.238Z,31.87
2018-07-21T02:53:50.078Z,31.87
2018-07-21T02:56:18.798Z,31.86
2018-07-21T02:58:47.560Z,31.87
2018-07-21T03:01:16.346Z,31.86
2018-07-21T03:03:45.086Z,31.86
2018-07-21T03:06:13.797Z,31.86
2018-07-21T03:08:42.597Z,31.86
2018-07-21T03:11:11.329Z,31.85
2018-07-21T03:13:40.040Z,31.86
2018-07-21T03:16:08.799Z,31.86
2018-07-21T03:18:37.559Z,31.86
2018-07-21T03:21:06.358Z,31.85
2018-07-21T03:23:35.203Z,31.86
2018-07-21T03:26:03.941Z,31.84
2018-07-21T03:28:32.646Z,31.85
2018-07-21T03:31:01.426Z,31.85
2018-07-21T03:33:30.149Z,31.84
2018-07-21T03:35:58.942Z,31.85
2018-07-21T03:38:27.746Z,31.85
2018-07-21T03:40:56.465Z,31.85
2018-07-21T03:43:25.192Z,31.85
2018-07-21T03:45:53.980Z,31.84
2018-07-21T03:48:22.816Z,31.84
2018-07-21T03:50:51.652Z,31.85
2018-07-21T03:53:20.433Z,31.84
2018-07-21T03:55:49.167Z,31.84
2018-07-21T03:58:17.878Z,31.84
2018-07-21T04:00:46.616Z,31.83
2018-07-21T04:03:15.333Z,31.84
2018-07-21T04:05:44.074Z,31.84
2018-07-21T04:08:12.850Z,31.84
2018-07-21T04:10:41.567Z,31.83
2018-07-21T04:13:10.276Z,31.84
2018-07-21T04:15:38.965Z,31.83
2018-07-21T04:18:07.673Z,31.83
2018-07-21T04:20:36.388Z,31.82
2018-07-21T04:23:05.194Z,31.82
2018-07-21T04:25:33.954Z,31.82
2018-07-21T04:28:02.713Z,31.81
2018-07-21T04:30:31.481Z,31.82
2018-07-21T04:33:00.206Z,31.81
2018-07-21T04:35:28.985Z,31.80
2018-07-21T04:37:57.700Z,31.80
2018-07-21T04:40:26.453Z,31.80
2018-07-21T04:42:55.169Z,31.79
2018-07-21T04:45:23.896Z,31.79
2018-07-21T04:47:52.587Z,31.78
2018-07-21T04:50:21.350Z,31.78
2018-07-21T04:52:50.087Z,31.76
2018-07-21T04:55:18.841Z,31.76
2018-07-21T04:57:47.566Z,31.75
2018-07-21T05:00:16.269Z,31.75
2018-07-21T05:02:44.985Z,31.75
2018-07-21T05:05:13.725Z,31.74
2018-07-21T05:07:42.434Z,31.74
2018-07-21T05:10:11.141Z,31.73
2018-07-21T05:12:39.834Z,31.72
2018-07-21T05:15:08.581Z,31.72
2018-07-21T05:17:37.326Z,31.71
2018-07-21T05:20:06.194Z,31.71
2018-07-21T05:22:34.949Z,31.69
2018-07-21T05:25:03.802Z,31.70
2018-07-21T05:27:32.551Z,31.69
2018-07-21T05:30:01.226Z,31.69
2018-07-21T05:32:29.980Z,31.68
2018-07-21T05:34:58.718Z,31.69
2018-07-21T05:37:27.465Z,31.69
2018-07-21T05:39:56.212Z,31.69
2018-07-21T05:42:24.986Z,31.69
2018-07-21T05:44:53.717Z,31.68
2018-07-21T05:47:22.564Z,31.68
2018-07-21T05:49:51.306Z,31.69
2018-07-21T05:52:20.065Z,31.69
2018-07-21T05:54:48.796Z,31.69
2018-07-21T05:57:17.527Z,31.69
2018-07-21T05:59:46.346Z,31.70
2018-07-21T06:02:15.089Z,31.70
2018-07-21T06:04:43.838Z,31.69
2018-07-21T06:07:12.600Z,31.70
2018-07-21T06:09:41.360Z,31.69
2018-07-21T06:12:10.054Z,31.70
2018-07-21T06:14:38.854Z,31.70
2018-07-21T06:17:07.841Z,31.70
2018-07-21T06:19:36.668Z,31.70
2018-07-21T06:22:05.455Z,31.70
2018-07-21T06:24:34.244Z,31.71
2018-07-21T06:27:03.025Z,31.71
2018-07-21T06:29:31.777Z,31.71
2018-07-21T06:32:00.481Z,31.71
2018-07-21T06:34:29.266Z,31.71
2018-07-21T06:36:58.043Z,31.70
2018-07-21T06:39:26.806Z,31.71
2018-07-21T06:41:55.581Z,31.71
2018-07-21T06:44:24.335Z,31.73
2018-07-21T06:46:53.099Z,31.71
2018-07-21T06:49:21.856Z,31.71
2018-07-21T06:51:50.574Z,31.73
2018-07-21T06:54:19.409Z,31.74
2018-07-21T06:56:48.145Z,31.75
2018-07-21T06:59:16.920Z,31.75
2018-07-21T07:01:45.680Z,31.75
2018-07-21T07:04:14.440Z,31.76
2018-07-21T07:06:43.238Z,31.77
2018-07-21T07:09:12.369Z,31.78
2018-07-21T07:11:41.130Z,31.78
2018-07-21T07:14:09.898Z,31.79
2018-07-21T07:16:38.637Z,31.80
2018-07-21T07:19:07.337Z,31.81
2018-07-21T07:21:36.098Z,31.81
2018-07-21T07:24:04.975Z,31.82
2018-07-21T07:26:33.784Z,31.83
2018-07-21T07:29:02.540Z,31.83
2018-07-21T07:31:31.299Z,31.83
2018-07-21T07:34:00.121Z,31.85
2018-07-21T07:36:28.837Z,31.84
2018-07-21T07:38:57.547Z,31.84
2018-07-21T07:41:27.178Z,31.85
2018-07-21T07:43:55.948Z,31.85
2018-07-21T07:46:24.714Z,31.87
2018-07-21T07:48:53.461Z,31.87
2018-07-21T07:51:22.244Z,31.88
2018-07-21T07:53:51.003Z,31.89
2018-07-21T07:56:19.774Z,31.91
2018-07-21T07:58:48.537Z,31.93
2018-07-21T08:01:17.340Z,31.95
2018-07-21T08:03:46.073Z,31.97
2018-07-21T08:06:14.980Z,31.98
2018-07-21T08:08:43.716Z,32.01
2018-07-21T08:11:12.427Z,32.03
2018-07-21T08:13:41.270Z,32.04
2018-07-21T08:16:10.013Z,32.07
2018-07-21T08:18:38.763Z,32.07
2018-07-21T08:21:07.600Z,32.09
2018-07-21T08:23:36.358Z,32.10
2018-07-21T08:26:05.214Z,32.10
2018-07-21T08:28:34.025Z,32.11
2018-07-21T08:31:02.919Z,32.12
2018-07-21T08:33:31.653Z,32.12
2018-07-21T08:36:00.378Z,32.11
2018-07-21T08:38:29.305Z,32.11
2018-07-21T08:40:58.072Z,32.12
2018-07-21T08:43:26.841Z,32.10
2018-07-21T08:45:55.603Z,32.11
2018-07-21T08:48:24.330Z,32.11
2018-07-21T08:50:53.076Z,32.11
2018-07-21T08:53:21.846Z,32.11
2018-07-21T08:55:50.769Z,32.10
2018-07-21T08:58:19.509Z,32.11
2018-07-21T09:00:48.237Z,32.11
2018-07-21T09:03:16.988Z,32.11
2018-07-21T09:05:45.772Z,32.10
2018-07-21T09:08:14.675Z,32.10
2018-07-21T09:10:43.457Z,32.10
2018-07-21T09:13:12.419Z,32.10
2018-07-21T09:15:41.197Z,32.11
2018-07-21T09:18:09.921Z,32.10
2018-07-21T09:20:38.741Z,32.10
2018-07-21T09:23:09.372Z,32.10
2018-07-21T09:25:38.150Z,32.10
2018-07-21T09:28:06.981Z,32.09
2018-07-21T09:30:35.741Z,32.10
2018-07-21T09:33:04.526Z,32.11
2018-07-21T09:35:33.314Z,32.09
2018-07-21T09:38:02.134Z,32.09
2018-07-21T09:40:30.914Z,32.09
2018-07-21T09:42:59.668Z,32.08
2018-07-21T09:45:28.468Z,32.08
2018-07-21T09:47:57.219Z,32.08
2018-07-21T09:50:25.996Z,32.08
2018-07-21T09:52:54.758Z,32.07
2018-07-21T09:55:23.560Z,32.07
2018-07-21T09:57:52.570Z,32.06
2018-07-21T10:00:26.440Z,32.06
2018-07-21T10:02:55.202Z,32.05
2018-07-21T10:05:23.969Z,32.05
2018-07-21T10:07:52.741Z,32.04
2018-07-21T10:10:21.458Z,32.04
2018-07-21T10:12:50.231Z,32.03
2018-07-21T10:15:18.964Z,32.04
2018-07-21T10:17:47.731Z,32.03
2018-07-21T10:20:16.673Z,32.04
2018-07-21T10:22:45.492Z,32.03
2018-07-21T10:25:22.205Z,32.03
2018-07-21T10:27:53.384Z,32.03
2018-07-21T10:30:22.168Z,32.04
2018-07-21T10:32:50.846Z,32.04
2018-07-21T10:35:19.557Z,32.03
2018-07-21T10:37:48.363Z,32.05
2018-07-21T10:40:17.134Z,32.05
2018-07-21T10:42:45.878Z,32.03
2018-07-21T10:45:14.682Z,32.05
2018-07-21T10:47:43.471Z,32.05
2018-07-21T10:50:12.261Z,32.05
2018-07-21T10:52:40.994Z,32.05
2018-07-21T10:55:09.775Z,32.04
2018-07-21T10:57:38.575Z,32.05
2018-07-21T11:00:07.808Z,32.05
2018-07-21T11:02:36.684Z,32.04
2018-07-21T11:05:05.651Z,32.04
2018-07-21T11:07:34.391Z,32.04
2018-07-21T11:10:03.183Z,32.03
2018-07-21T11:12:31.989Z,32.03
2018-07-21T11:15:00.793Z,32.04
2018-07-21T11:17:29.518Z,32.04
2018-07-21T11:19:58.281Z,32.03
2018-07-21T11:22:27.071Z,32.03
2018-07-21T11:24:55.876Z,32.04
2018-07-21T11:27:24.689Z,32.03
2018-07-21T11:29:53.552Z,32.03
2018-07-21T11:32:22.378Z,32.03
2018-07-21T11:34:51.162Z,32.04
2018-07-21T11:37:20.027Z,32.04
2018-07-21T11:39:48.912Z,32.04
2018-07-21T11:42:17.655Z,32.04
2018-07-21T11:44:46.386Z,32.03
2018-07-21T11:47:15.181Z,32.04
2018-07-21T11:49:43.983Z,32.05
2018-07-21T11:52:12.722Z,32.03
2018-07-21T11:54:41.444Z,32.04
2018-07-21T11:57:10.201Z,32.04
2018-07-21T11:59:38.966Z,32.04
2018-07-21T12:02:07.828Z,32.05
2018-07-21T12:04:36.804Z,32.05
2018-07-21T12:07:05.862Z,32.04
2018-07-21T12:09:34.689Z,32.05
2018-07-21T12:12:03.539Z,32.04
2018-07-21T12:14:32.340Z,32.03
2018-07-21T12:17:01.081Z,32.04
2018-07-21T12:19:29.900Z,32.04
2018-07-21T12:21:58.661Z,32.04
2018-07-21T12:24:27.427Z,32.04
2018-07-21T12:26:56.208Z,32.03
2018-07-21T12:29:25.094Z,32.04
2018-07-21T12:31:53.907Z,32.04
2018-07-21T12:34:22.736Z,32.03
2018-07-21T12:36:51.525Z,32.04
2018-07-21T12:39:20.321Z,32.04
2018-07-21T12:41:49.088Z,32.05
2018-07-21T12:44:17.877Z,32.04
2018-07-21T12:46:46.691Z,32.04
2018-07-21T12:49:15.434Z,32.05
2018-07-21T12:51:44.236Z,32.05
2018-07-21T12:54:13.037Z,32.05
2018-07-21T12:56:41.754Z,32.05
2018-07-21T12:59:10.571Z,32.04
2018-07-21T13:01:39.323Z,32.05
2018-07-21T13:04:08.124Z,32.05
2018-07-21T13:06:36.832Z,32.04
2018-07-21T13:09:08.000Z,32.04
2018-07-21T13:11:36.774Z,32.05
2018-07-21T13:14:05.568Z,32.04
2018-07-21T13:16:34.545Z,32.04
2018-07-21T13:19:03.347Z,32.04
2018-07-21T13:21:32.261Z,32.04
2018-07-21T13:24:01.073Z,32.03
2018-07-21T13:26:29.844Z,32.02
2018-07-21T13:28:58.619Z,32.03
2018-07-21T13:31:27.457Z,32.03
2018-07-21T13:33:56.270Z,32.01
2018-07-21T13:36:25.169Z,32.01
2018-07-21T13:38:53.933Z,32.01
2018-07-21T13:41:22.669Z,32.01
2018-07-21T13:43:51.454Z,32.00
2018-07-21T13:46:20.203Z,31.99
2018-07-21T13:48:49.019Z,31.99
2018-07-21T13:51:17.943Z,31.98
2018-07-21T13:53:46.770Z,31.98
2018-07-21T13:56:15.567Z,31.98
2018-07-21T13:58:44.325Z,31.98
2018-07-21T14:01:13.134Z,31.97
2018-07-21T14:03:41.929Z,31.97
2018-07-21T14:06:10.754Z,31.97
2018-07-21T14:08:39.529Z,31.96
2018-07-21T14:11:08.360Z,31.96
2018-07-21T14:13:37.160Z,31.95
2018-07-21T14:16:05.999Z,31.96
2018-07-21T14:18:34.841Z,31.94
2018-07-21T14:21:03.645Z,31.94
2018-07-21T14:23:32.378Z,31.94
2018-07-21T14:26:01.137Z,31.93
2018-07-21T14:28:29.926Z,31.94
2018-07-21T14:30:58.687Z,31.93
2018-07-21T14:33:27.446Z,31.93
2018-07-21T14:35:56.336Z,31.93
2018-07-21T14:38:25.169Z,31.92
2018-07-21T14:40:53.955Z,31.93
2018-07-21T14:43:22.726Z,31.92
2018-07-21T14:45:51.573Z,31.92
2018-07-21T14:48:20.382Z,31.92
2018-07-21T14:50:49.176Z,31.93
2018-07-21T14:53:17.948Z,31.93
2018-07-21T14:55:46.796Z,31.93
2018-07-21T14:58:15.783Z,31.94
2018-07-21T15:00:44.545Z,31.94
2018-07-21T15:03:13.369Z,31.93
2018-07-21T15:05:42.163Z,31.94
2018-07-21T15:08:10.965Z,31.95
2018-07-21T15:10:39.831Z,31.94
2018-07-21T15:13:08.607Z,31.95
2018-07-21T15:15:37.406Z,31.94
2018-07-21T15:18:06.295Z,31.95
2018-07-21T15:20:35.139Z,31.94
2018-07-21T15:23:03.966Z,31.95
2018-07-21T15:25:32.750Z,31.94
2018-07-21T15:28:01.590Z,31.95
2018-07-21T15:30:30.358Z,31.95
2018-07-21T15:32:59.121Z,31.95
2018-07-21T15:35:27.908Z,31.95
2018-07-21T15:37:56.765Z,31.95
2018-07-21T15:40:25.669Z,31.95
2018-07-21T15:42:54.466Z,31.96
2018-07-21T15:45:23.248Z,31.96
2018-07-21T15:47:52.097Z,31.95
2018-07-21T15:50:20.887Z,31.96
2018-07-21T15:52:49.654Z,31.97
2018-07-21T15:55:18.436Z,31.96
2018-07-21T15:57:50.906Z,31.97
2018-07-21T16:00:19.782Z,31.97
2018-07-21T16:02:48.582Z,31.95
2018-07-21T16:05:17.334Z,31.97
2018-07-21T16:07:46.073Z,31.97
2018-07-21T16:10:14.860Z,31.97
2018-07-21T16:12:43.622Z,31.97
2018-07-21T16:15:12.422Z,31.97
2018-07-21T16:17:41.286Z,31.97
2018-07-21T16:20:10.175Z,31.96
2018-07-21T16:22:38.962Z,31.97
2018-07-21T16:25:07.805Z,31.98
2018-07-21T16:27:36.750Z,31.98
2018-07-21T16:30:05.574Z,31.97
2018-07-21T16:32:34.389Z,31.97
2018-07-21T16:35:03.149Z,31.97
2018-07-21T16:37:31.922Z,31.99
2018-07-21T16:40:00.950Z,31.98
2018-07-21T16:42:35.436Z,31.99
2018-07-21T16:46:06.688Z,31.98
2018-07-21T16:48:35.469Z,31.98
2018-07-21T16:51:04.333Z,31.96
2018-07-21T16:53:33.315Z,31.96
2018-07-21T16:56:02.133Z,31.96
2018-07-21T16:58:30.971Z,31.96
2018-07-21T17:00:59.763Z,31.97
2018-07-21T17:03:28.566Z,31.96
2018-07-21T17:05:57.321Z,31.95
2018-07-21T17:08:26.147Z,31.96
2018-07-21T17:10:54.992Z,31.96
2018-07-21T17:13:23.793Z,31.96
2018-07-21T17:15:52.637Z,31.95
2018-07-21T17:18:21.401Z,31.96
2018-07-21T17:20:50.187Z,31.96
2018-07-21T17:23:19.041Z,31.96
2018-07-21T17:25:47.963Z,31.95
2018-07-21T17:28:16.851Z,31.95
2018-07-21T17:30:45.612Z,31.96
2018-07-21T17:33:14.408Z,31.95
2018-07-21T17:35:43.351Z,31.95
2018-07-21T17:38:12.168Z,31.95
2018-07-21T17:40:41.083Z,31.95
2018-07-21T17:43:09.868Z,31.93
2018-07-21T17:45:38.967Z,31.94
2018-07-21T17:48:07.792Z,31.93
2018-07-21T17:50:36.697Z,31.94
2018-07-21T17:53:05.618Z,31.93
2018-07-21T17:55:34.451Z,31.93
2018-07-21T17:58:03.966Z,31.92
2018-07-21T18:00:32.798Z,31.92
2018-07-21T18:03:01.585Z,31.92
2018-07-21T18:05:30.496Z,31.91
2018-07-21T18:07:59.313Z,31.91
2018-07-21T18:10:28.147Z,31.91
2018-07-21T18:12:56.934Z,31.90
2018-07-21T18:15:25.751Z,31.89
2018-07-21T18:17:54.606Z,31.89
2018-07-21T18:20:23.344Z,31.87
2018-07-21T18:22:52.151Z,31.87
2018-07-21T18:25:21.096Z,31.87
2018-07-21T18:27:49.856Z,31.86
2018-07-21T18:30:18.637Z,31.86
2018-07-21T18:32:47.447Z,31.85
2018-07-21T18:35:16.598Z,31.85
2018-07-21T18:37:45.441Z,31.85
2018-07-21T18:40:14.303Z,31.84
2018-07-21T18:42:43.109Z,31.83
2018-07-21T18:45:11.876Z,31.82
2018-07-21T18:47:40.664Z,31.82
2018-07-21T18:50:09.504Z,31.82
2018-07-21T18:52:38.329Z,31.81
2018-07-21T18:55:07.167Z,31.80
2018-07-21T18:57:37.480Z,31.79
2018-07-21T19:00:06.320Z,31.79
2018-07-21T19:02:35.299Z,31.78
2018-07-21T19:05:04.294Z,31.78
2018-07-21T19:07:33.094Z,31.79
2018-07-21T19:10:01.923Z,31.77
2018-07-21T19:12:35.927Z,31.77
2018-07-21T19:15:04.967Z,31.76
2018-07-21T19:17:33.834Z,31.78
2018-07-21T19:20:07.765Z,31.76
2018-07-21T19:22:36.599Z,31.76
2018-07-21T19:25:10.562Z,31.77
2018-07-21T19:27:39.351Z,31.76
2018-07-21T19:30:08.163Z,31.77
2018-07-21T19:32:42.077Z,31.76
2018-07-21T19:35:10.944Z,31.75
2018-07-21T19:37:44.765Z,31.76
2018-07-21T19:40:13.546Z,31.75
2018-07-21T19:42:42.349Z,31.75
2018-07-21T19:45:11.188Z,31.75
2018-07-21T19:47:40.148Z,31.75
2018-07-21T19:50:08.922Z,31.75
2018-07-21T19:52:37.824Z,31.75
2018-07-21T19:55:06.839Z,31.74
2018-07-21T19:57:35.638Z,31.74
2018-07-21T20:00:05.042Z,31.74
2018-07-21T20:02:34.441Z,31.74
2018-07-21T20:05:03.267Z,31.74
2018-07-21T20:07:32.046Z,31.75
2018-07-21T20:10:00.857Z,31.74
2018-07-21T20:12:29.658Z,31.74
2018-07-21T20:14:58.429Z,31.74
2018-07-21T20:17:27.259Z,31.73
2018-07-21T20:19:56.115Z,31.72
2018-07-21T20:22:24.942Z,31.71
2018-07-21T20:24:53.734Z,31.72
2018-07-21T20:27:22.488Z,31.72
2018-07-21T20:29:51.291Z,31.71
2018-07-21T20:32:20.035Z,31.71
2018-07-21T20:34:48.770Z,31.71
2018-07-21T20:37:17.753Z,31.71
2018-07-21T20:39:46.530Z,31.71
2018-07-21T20:42:15.357Z,31.71
2018-07-21T20:44:44.127Z,31.72
2018-07-21T20:47:12.920Z,31.70
2018-07-21T20:49:41.699Z,31.69
2018-07-21T20:52:10.500Z,31.69
2018-07-21T20:54:39.328Z,31.70
2018-07-21T20:57:08.347Z,31.69
2018-07-21T20:59:37.180Z,31.69
2018-07-21T21:02:06.008Z,31.69
2018-07-21T21:04:34.772Z,31.68
2018-07-21T21:07:03.638Z,31.69
2018-07-21T21:09:32.515Z,31.69
2018-07-21T21:12:01.435Z,31.68
2018-07-21T21:14:30.209Z,31.68
2018-07-21T21:16:59.023Z,31.68
2018-07-21T21:19:27.871Z,31.66
2018-07-21T21:21:56.652Z,31.67
2018-07-21T21:24:25.443Z,31.67
2018-07-21T21:26:54.296Z,31.66
2018-07-21T21:29:23.090Z,31.67
2018-07-21T21:31:51.858Z,31.65
2018-07-21T21:34:20.602Z,31.65
2018-07-21T21:36:49.408Z,31.66
2018-07-21T21:39:18.178Z,31.65
2018-07-21T21:41:47.606Z,31.64
2018-07-21T21:44:16.436Z,31.64
2018-07-21T21:46:45.210Z,31.63
2018-07-21T21:49:13.965Z,31.63
2018-07-21T21:51:43.942Z,31.64
2018-07-21T21:54:12.708Z,31.62
2018-07-21T21:56:41.461Z,31.60
2018-07-21T21:59:10.911Z,31.61
2018-07-21T22:01:39.725Z,31.61
2018-07-21T22:04:08.498Z,31.59
2018-07-21T22:06:37.314Z,31.60
2018-07-21T22:09:09.006Z,31.59
2018-07-21T22:11:37.902Z,31.59
2018-07-21T22:14:07.237Z,31.58
2018-07-21T22:16:36.079Z,31.57
2018-07-21T22:19:04.872Z,31.56
2018-07-21T22:21:33.697Z,31.57
2018-07-21T22:24:02.519Z,31.55
2018-07-21T22:26:31.273Z,31.56
2018-07-21T22:29:00.049Z,31.55
2018-07-21T22:31:28.855Z,31.54
2018-07-21T22:33:57.638Z,31.54
2018-07-21T22:36:26.443Z,31.53
2018-07-21T22:38:55.188Z,31.52
2018-07-21T22:41:24.903Z,31.51
2018-07-21T22:43:53.790Z,31.51
2018-07-21T22:46:22.591Z,31.51
2018-07-21T22:48:51.397Z,31.50
2018-07-21T22:51:20.200Z,31.50
2018-07-21T22:53:49.028Z,31.50
2018-07-21T22:56:17.798Z,31.50
2018-07-21T22:58:46.628Z,31.49
2018-07-21T23:01:15.471Z,31.49
2018-07-21T23:03:45.137Z,31.49
2018-07-21T23:06:13.993Z,31.49
2018-07-21T23:08:42.769Z,31.49
2018-07-21T23:11:11.544Z,31.48
2018-07-21T23:13:40.301Z,31.48
2018-07-21T23:16:09.268Z,31.48
2018-07-21T23:18:38.046Z,31.48
2018-07-21T23:21:06.869Z,31.48
2018-07-21T23:23:35.676Z,31.47
2018-07-21T23:26:04.623Z,31.48
2018-07-21T23:28:33.389Z,31.46
2018-07-21T23:31:02.255Z,31.47
2018-07-21T23:33:31.003Z,31.47
2018-07-21T23:35:59.781Z,31.47
2018-07-21T23:38:28.522Z,31.47
2018-07-21T23:40:57.259Z,31.46
2018-07-21T23:43:26.050Z,31.46
2018-07-21T23:45:54.827Z,31.45
2018-07-21T23:48:23.600Z,31.46
2018-07-21T23:50:52.405Z,31.46
2018-07-21T23:53:21.211Z,31.45
2018-07-21T23:55:49.963Z,31.45
2018-07-21T23:58:18.674Z,31.45
